createdAt,value
2022-12-12T00:04:07.566Z,-2.42
2022-12-12T00:08:59.480Z,-2.46
2022-12-12T00:13:51.358Z,-2.49
2022-12-12T00:18:43.048Z,-2.43
2022-12-12T00:23:35.085Z,-2.28
2022-12-12T00:28:28.321Z,-2.13
2022-12-12T00:33:20.092Z,-1.90
2022-12-12T00:38:11.907Z,-1.84
2022-12-12T00:43:03.875Z,-1.98
2022-12-12T00:47:55.876Z,-2.01
2022-12-12T00:52:48.003Z,-1.99
2022-12-12T00:57:39.681Z,-2.04
2022-12-12T01:02:31.399Z,-1.93
2022-12-12T01:07:23.432Z,-2.07
2022-12-12T01:12:15.268Z,-2.13
2022-12-12T01:17:07.206Z,-2.23
2022-12-12T01:21:58.957Z,-2.22
2022-12-12T01:26:50.822Z,-2.19
2022-12-12T01:31:43.380Z,-2.08
2022-12-12T01:36:35.169Z,-2.03
2022-12-12T01:41:27.300Z,-2.26
2022-12-12T01:46:44.119Z,-2.35
2022-12-12T01:51:39.313Z,-2.43
2022-12-12T01:56:32.476Z,-2.47
2022-12-12T02:01:24.888Z,-2.60
2022-12-12T02:06:24.808Z,-2.57
2022-12-12T02:11:16.519Z,-2.59
2022-12-12T02:16:32.663Z,-2.72
2022-12-12T02:21:49.676Z,-2.76
2022-12-12T02:27:18.848Z,-2.74
2022-12-12T02:32:55.128Z,-2.75
2022-12-12T02:37:49.835Z,-2.89
2022-12-12T02:43:08.694Z,-3.01
2022-12-12T02:48:38.253Z,-3.05
2022-12-12T02:53:29.987Z,-3.05
2022-12-12T02:58:21.701Z,-3.04
2022-12-12T03:04:01.263Z,-3.03
2022-12-12T03:09:39.935Z,-3.08
2022-12-12T03:15:16.249Z,-2.96
2022-12-12T03:20:26.628Z,-2.97
2022-12-12T03:25:34.473Z,-2.89
2022-12-12T03:30:29.950Z,-2.85
2022-12-12T03:35:44.303Z,-2.73
2022-12-12T03:40:43.502Z,-2.65
2022-12-12T03:46:15.782Z,-2.54
2022-12-12T03:51:26.844Z,-2.60
2022-12-12T03:56:29.399Z,-2.58
2022-12-12T04:01:35.302Z,-2.60
2022-12-12T04:06:39.151Z,-2.58
2022-12-12T04:12:05.455Z,-2.78
2022-12-12T04:17:04.338Z,-2.94
2022-12-12T04:22:19.049Z,-2.98
2022-12-12T04:27:43.388Z,-2.96
2022-12-12T04:32:50.850Z,-2.95
2022-12-12T04:37:55.775Z,-2.88
2022-12-12T04:42:58.867Z,-2.83
2022-12-12T04:47:53.304Z,-2.76
2022-12-12T04:52:48.913Z,-2.77
2022-12-12T04:57:47.423Z,-2.63
2022-12-12T11:25:46.928Z,-0.35
2022-12-12T15:36:38.796Z,-2.29
2022-12-12T15:41:44.599Z,-2.50
2022-12-12T15:52:47.106Z,-2.78
2022-12-12T17:06:41.873Z,-3.43
2022-12-12T17:16:44.832Z,-3.43
2022-12-12T18:07:52.969Z,-4.22
2022-12-12T18:33:13.620Z,-4.41
2022-12-12T18:38:08.584Z,-4.47
2022-12-12T18:43:04.860Z,-4.36
2022-12-12T18:53:04.805Z,-4.40
2022-12-12T18:58:04.835Z,-4.39
2022-12-12T19:54:28.988Z,-4.20
2022-12-12T19:59:24.752Z,-4.14
2022-12-12T20:19:53.552Z,-4.08
2022-12-12T20:34:58.153Z,-4.07
2022-12-12T20:55:10.066Z,-3.96
2022-12-12T21:15:27.476Z,-4.39
2022-12-12T21:20:20.085Z,-4.47
2022-12-12T21:30:25.993Z,-4.43
2022-12-12T21:45:33.925Z,-4.30
2022-12-12T22:36:55.095Z,-4.67
2022-12-12T23:28:21.479Z,-4.59
2022-12-12T23:33:15.609Z,-4.53
